Raybon, Georgia
Current Conditions -  °F | °C
As of 3:15 PM on Monday 26 Jan 2015 (Local Time) from KAYS Reporting Station
Overcast Overcast  
Wind Chill: 55°   Ceiling: 3500
Heat Index: 55°   Visibility: 10mi
Dew Point: 41°   Wind: 17mph
Humidity: 61%   Direction: 300°WNW
Pressure: 29.82"   Gusts: 23mph
Location:  31.1753°N, 81.969°W
Report Text: KAYS 262015Z AUTO 30015G20KT 10SM OVC035 13/05 A2982 RMK AO2 T01260052
Loading
Personal Weather Stations






























Interactive Weather Map New forecast layout! Learn more

10-Day Weather Forecast

Advertisements
Track Severe Weather on mobile